Airfield :
LOGIN :

Register | Disclaimer

   EN    FR    IT 

 










Legend :    VFR   Marginal VFR   IFR   Intensive IFR   Very Intensive IFR
Visi :
Ceiling :
>= 8 km
>= 3000ft
5 to 8 km
1000 to 3000 ft
1500m to 5 km
500 to 1000 ft
800 to 1500m
200 to 500 ft
< 800m
< 200 ft
Symbols :   Thunderstorms  Fog  Heavy snow  Heavy precipitations  Wind > 20 kt
SIGMETs :     Misc.  Thunderstorms  Icing  Turbulence  Mountain Waves  Volcanic Ashes






- Airport Elevation : 1768 ft


LEHC - Huesca Pirineos

CURRENT METAR :
  • 271100Z 29015G27KT 260V330 9999 FEW030 17/09 Q1013

EXPIRED METARs :
  • 271030Z 30016G30KT 260V330 9999 FEW030 17/08 Q1013
  • 271000Z 30017KT 260V330 9999 FEW030 17/08 Q1013
  • 270930Z 29017G28KT 260V330 9999 FEW032 17/09 Q1014
  • 270900Z 28014KT 250V310 9999 FEW028 16/10 Q1014
  • 270830Z 29018KT 260V320 9999 FEW025 15/10 Q1013

TAF TAF LEHC
Valid from the 27 at 09:00 until the 28 at 09:00 UTC


270800Z 2709/2809 30010KT 9999 FEW030 TX20/2713Z TN13/2805Z
TEMPO 2709/2719 31023G37KT



MET'MAP, your aeronautical weather chart ! - Copyright ORBIFLY December 2007 - Disclaimer

ORBIFLY MET'MAP TEAM :

Programming & Development : Alexandra Zaïnal
Original concept : Baudouin d'Aumeries
Technical & hardware support : Manuel Goepfert
Assistance : Marc-Olivier Méhu




SOURCES & CREDITS :

   NOAA